sensor_id;sensor_type;location;lat;lon;timestamp;P1;durP1;ratioP1;P2;durP2;ratioP2
63690;SDS011;49837;57.280;27.070;2022-12-29T00:00:13;0.6;;;0.6;;
63690;SDS011;49837;57.280;27.070;2022-12-29T00:01:13;0.5;;;0.5;;
63690;SDS011;49837;57.280;27.070;2022-12-29T00:02:14;0.6;;;0.6;;
63690;SDS011;49837;57.280;27.070;2022-12-29T00:03:14;0.6;;;0.6;;
63690;SDS011;49837;57.280;27.070;2022-12-29T00:04:15;0.6;;;0.6;;
63690;SDS011;49837;57.280;27.070;2022-12-29T00:05:15;0.5;;;0.5;;
63690;SDS011;49837;57.280;27.070;2022-12-29T00:06:15;0.6;;;0.6;;
63690;SDS011;49837;57.280;27.070;2022-12-29T00:07:16;0.6;;;0.6;;
63690;SDS011;49837;57.280;27.070;2022-12-29T00:08:16;0.6;;;0.6;;
63690;SDS011;49837;57.280;27.070;2022-12-29T00:09:16;0.5;;;0.5;;
63690;SDS011;49837;57.280;27.070;2022-12-29T00:10:17;0.6;;;0.6;;
63690;SDS011;49837;57.280;27.070;2022-12-29T00:11:18;0.5;;;0.5;;
63690;SDS011;49837;57.280;27.070;2022-12-29T00:12:20;0.6;;;0.6;;
63690;SDS011;49837;57.280;27.070;2022-12-29T00:13:21;0.5;;;0.5;;
63690;SDS011;49837;57.280;27.070;2022-12-29T00:14:21;0.6;;;0.6;;
63690;SDS011;49837;57.280;27.070;2022-12-29T00:15:22;0.6;;;0.6;;
63690;SDS011;49837;57.280;27.070;2022-12-29T00:16:22;0.6;;;0.6;;
63690;SDS011;49837;57.280;27.070;2022-12-29T00:17:22;0.5;;;0.5;;
63690;SDS011;49837;57.280;27.070;2022-12-29T00:18:23;0.6;;;0.6;;
63690;SDS011;49837;57.280;27.070;2022-12-29T00:19:23;0.6;;;0.6;;
63690;SDS011;49837;57.280;27.070;2022-12-29T00:20:23;0.6;;;0.6;;
63690;SDS011;49837;57.280;27.070;2022-12-29T00:21:24;0.5;;;0.5;;
63690;SDS011;49837;57.280;27.070;2022-12-29T00:22:24;0.6;;;0.6;;
63690;SDS011;49837;57.280;27.070;2022-12-29T00:23:25;0.5;;;0.5;;
63690;SDS011;49837;57.280;27.070;2022-12-29T00:24:25;0.6;;;0.6;;
63690;SDS011;49837;57.280;27.070;2022-12-29T00:25:25;0.5;;;0.5;;
63690;SDS011;49837;57.280;27.070;2022-12-29T00:26:25;0.5;;;0.5;;
63690;SDS011;49837;57.280;27.070;2022-12-29T00:27:26;0.6;;;0.6;;
63690;SDS011;49837;57.280;27.070;2022-12-29T00:28:26;0.6;;;0.6;;
63690;SDS011;49837;57.280;27.070;2022-12-29T00:29:27;0.6;;;0.6;;
63690;SDS011;49837;57.280;27.070;2022-12-29T00:30:27;0.6;;;0.6;;
63690;SDS011;49837;57.280;27.070;2022-12-29T00:31:27;0.5;;;0.5;;
63690;SDS011;49837;57.280;27.070;2022-12-29T00:32:28;0.6;;;0.6;;
63690;SDS011;49837;57.280;27.070;2022-12-29T00:33:29;0.6;;;0.6;;
63690;SDS011;49837;57.280;27.070;2022-12-29T00:34:28;0.5;;;0.5;;
63690;SDS011;49837;57.280;27.070;2022-12-29T00:35:33;0.9;;;0.7;;
63690;SDS011;49837;57.280;27.070;2022-12-29T00:36:35;0.6;;;0.6;;
63690;SDS011;49837;57.280;27.070;2022-12-29T00:37:43;0.9;;;0.9;;
63690;SDS011;49837;57.280;27.070;2022-12-29T00:38:37;0.6;;;0.6;;
63690;SDS011;49837;57.280;27.070;2022-12-29T00:39:38;0.5;;;0.5;;
63690;SDS011;49837;57.280;27.070;2022-12-29T00:40:38;0.5;;;0.5;;
63690;SDS011;49837;57.280;27.070;2022-12-29T00:41:38;0.6;;;0.6;;
63690;SDS011;49837;57.280;27.070;2022-12-29T00:42:39;0.6;;;0.6;;
63690;SDS011;49837;57.280;27.070;2022-12-29T00:43:39;0.6;;;0.6;;
63690;SDS011;49837;57.280;27.070;2022-12-29T00:44:39;0.6;;;0.6;;
63690;SDS011;49837;57.280;27.070;2022-12-29T00:45:40;0.6;;;0.6;;
63690;SDS011;49837;57.280;27.070;2022-12-29T00:46:41;0.6;;;0.6;;
63690;SDS011;49837;57.280;27.070;2022-12-29T00:47:40;0.5;;;0.5;;
63690;SDS011;49837;57.280;27.070;2022-12-29T00:48:41;0.6;;;0.6;;
63690;SDS011;49837;57.280;27.070;2022-12-29T00:49:41;0.4;;;0.4;;
63690;SDS011;49837;57.280;27.070;2022-12-29T00:50:41;0.6;;;0.6;;
63690;SDS011;49837;57.280;27.070;2022-12-29T00:51:42;0.5;;;0.5;;
63690;SDS011;49837;57.280;27.070;2022-12-29T00:52:42;0.5;;;0.5;;
63690;SDS011;49837;57.280;27.070;2022-12-29T00:53:42;0.5;;;0.5;;
63690;SDS011;49837;57.280;27.070;2022-12-29T00:54:43;0.6;;;0.6;;
63690;SDS011;49837;57.280;27.070;2022-12-29T00:55:43;0.5;;;0.5;;
63690;SDS011;49837;57.280;27.070;2022-12-29T00:56:45;0.5;;;0.5;;
63690;SDS011;49837;57.280;27.070;2022-12-29T00:57:46;0.5;;;0.5;;
63690;SDS011;49837;57.280;27.070;2022-12-29T00:58:46;0.5;;;0.5;;
63690;SDS011;49837;57.280;27.070;2022-12-29T00:59:47;0.8;;;0.7;;
63690;SDS011;49837;57.280;27.070;2022-12-29T01:00:47;0.6;;;0.6;;
63690;SDS011;49837;57.280;27.070;2022-12-29T01:01:48;0.6;;;0.6;;
63690;SDS011;49837;57.280;27.070;2022-12-29T01:02:48;0.6;;;0.6;;
63690;SDS011;49837;57.280;27.070;2022-12-29T01:03:48;0.6;;;0.6;;
63690;SDS011;49837;57.280;27.070;2022-12-29T01:04:48;0.6;;;0.6;;
63690;SDS011;49837;57.280;27.070;2022-12-29T01:05:49;0.6;;;0.6;;
63690;SDS011;49837;57.280;27.070;2022-12-29T01:06:49;0.6;;;0.6;;
63690;SDS011;49837;57.280;27.070;2022-12-29T01:07:49;0.7;;;0.7;;
63690;SDS011;49837;57.280;27.070;2022-12-29T01:08:50;0.5;;;0.5;;
63690;SDS011;49837;57.280;27.070;2022-12-29T01:09:50;0.6;;;0.6;;
63690;SDS011;49837;57.280;27.070;2022-12-29T01:11:54;0.6;;;0.6;;
63690;SDS011;49837;57.280;27.070;2022-12-29T01:12:54;0.6;;;0.6;;
63690;SDS011;49837;57.280;27.070;2022-12-29T01:13:55;0.6;;;0.6;;
63690;SDS011;49837;57.280;27.070;2022-12-29T01:14:55;0.6;;;0.6;;
63690;SDS011;49837;57.280;27.070;2022-12-29T01:15:55;0.7;;;0.7;;
63690;SDS011;49837;57.280;27.070;2022-12-29T01:16:56;0.6;;;0.6;;
63690;SDS011;49837;57.280;27.070;2022-12-29T01:17:56;0.6;;;0.6;;
63690;SDS011;49837;57.280;27.070;2022-12-29T01:18:56;0.6;;;0.6;;
63690;SDS011;49837;57.280;27.070;2022-12-29T01:19:57;0.6;;;0.6;;
63690;SDS011;49837;57.280;27.070;2022-12-29T01:21:00;0.6;;;0.6;;
63690;SDS011;49837;57.280;27.070;2022-12-29T01:21:59;0.6;;;0.6;;
63690;SDS011;49837;57.280;27.070;2022-12-29T01:22:59;0.5;;;0.5;;
63690;SDS011;49837;57.280;27.070;2022-12-29T01:24:00;0.6;;;0.6;;
63690;SDS011;49837;57.280;27.070;2022-12-29T01:25:00;0.5;;;0.5;;
63690;SDS011;49837;57.280;27.070;2022-12-29T01:26:13;0.6;;;0.6;;
63690;SDS011;49837;57.280;27.070;2022-12-29T01:27:02;0.7;;;0.7;;
63690;SDS011;49837;57.280;27.070;2022-12-29T01:28:03;0.6;;;0.6;;
63690;SDS011;49837;57.280;27.070;2022-12-29T01:29:03;0.6;;;0.6;;
63690;SDS011;49837;57.280;27.070;2022-12-29T01:30:04;0.6;;;0.6;;
63690;SDS011;49837;57.280;27.070;2022-12-29T01:31:04;0.6;;;0.6;;
63690;SDS011;49837;57.280;27.070;2022-12-29T01:32:04;0.6;;;0.6;;
63690;SDS011;49837;57.280;27.070;2022-12-29T01:33:04;0.6;;;0.6;;
63690;SDS011;49837;57.280;27.070;2022-12-29T01:34:05;0.6;;;0.6;;
63690;SDS011;49837;57.280;27.070;2022-12-29T01:35:05;0.6;;;0.6;;
63690;SDS011;49837;57.280;27.070;2022-12-29T01:36:07;0.7;;;0.7;;
63690;SDS011;49837;57.280;27.070;2022-12-29T01:37:06;0.8;;;0.8;;
63690;SDS011;49837;57.280;27.070;2022-12-29T01:38:06;0.6;;;0.6;;
63690;SDS011;49837;57.280;27.070;2022-12-29T01:39:07;0.7;;;0.7;;
63690;SDS011;49837;57.280;27.070;2022-12-29T01:40:08;0.7;;;0.7;;
63690;SDS011;49837;57.280;27.070;2022-12-29T01:41:08;0.7;;;0.7;;
63690;SDS011;49837;57.280;27.070;2022-12-29T01:42:26;0.7;;;0.7;;
63690;SDS011;49837;57.280;27.070;2022-12-29T01:43:13;0.8;;;0.8;;
63690;SDS011;49837;57.280;27.070;2022-12-29T01:45:18;0.7;;;0.7;;
63690;SDS011;49837;57.280;27.070;2022-12-29T01:47:37;0.6;;;0.6;;
63690;SDS011;49837;57.280;27.070;2022-12-29T01:48:25;0.8;;;0.8;;
63690;SDS011;49837;57.280;27.070;2022-12-29T01:49:26;0.7;;;0.7;;
63690;SDS011;49837;57.280;27.070;2022-12-29T01:50:27;0.6;;;0.6;;
63690;SDS011;49837;57.280;27.070;2022-12-29T01:51:29;0.7;;;0.7;;
63690;SDS011;49837;57.280;27.070;2022-12-29T01:52:30;0.6;;;0.6;;
63690;SDS011;49837;57.280;27.070;2022-12-29T01:53:31;0.7;;;0.7;;
63690;SDS011;49837;57.280;27.070;2022-12-29T01:54:36;0.7;;;0.7;;
63690;SDS011;49837;57.280;27.070;2022-12-29T01:55:39;0.7;;;0.7;;
63690;SDS011;49837;57.280;27.070;2022-12-29T01:56:39;0.8;;;0.8;;
63690;SDS011;49837;57.280;27.070;2022-12-29T01:57:40;0.7;;;0.7;;
63690;SDS011;49837;57.280;27.070;2022-12-29T01:58:41;0.7;;;0.7;;
63690;SDS011;49837;57.280;27.070;2022-12-29T01:59:43;0.8;;;0.8;;
63690;SDS011;49837;57.280;27.070;2022-12-29T02:00:42;0.6;;;0.6;;
63690;SDS011;49837;57.280;27.070;2022-12-29T02:01:43;0.7;;;0.7;;
63690;SDS011;49837;57.280;27.070;2022-12-29T02:02:46;0.7;;;0.7;;
63690;SDS011;49837;57.280;27.070;2022-12-29T02:03:48;0.8;;;0.8;;
63690;SDS011;49837;57.280;27.070;2022-12-29T02:04:48;0.8;;;0.8;;
63690;SDS011;49837;57.280;27.070;2022-12-29T02:05:50;0.7;;;0.7;;
63690;SDS011;49837;57.280;27.070;2022-12-29T02:06:54;0.9;;;0.9;;
63690;SDS011;49837;57.280;27.070;2022-12-29T02:07:56;0.8;;;0.8;;
63690;SDS011;49837;57.280;27.070;2022-12-29T02:08:56;0.8;;;0.8;;
63690;SDS011;49837;57.280;27.070;2022-12-29T02:09:57;0.8;;;0.8;;
63690;SDS011;49837;57.280;27.070;2022-12-29T02:10:58;0.8;;;0.8;;
63690;SDS011;49837;57.280;27.070;2022-12-29T02:11:57;0.8;;;0.8;;
63690;SDS011;49837;57.280;27.070;2022-12-29T02:12:58;0.8;;;0.8;;
63690;SDS011;49837;57.280;27.070;2022-12-29T02:13:58;0.8;;;0.8;;
63690;SDS011;49837;57.280;27.070;2022-12-29T02:15:00;0.7;;;0.7;;
63690;SDS011;49837;57.280;27.070;2022-12-29T02:16:21;0.8;;;0.8;;
63690;SDS011;49837;57.280;27.070;2022-12-29T02:20:27;0.9;;;0.9;;
63690;SDS011;49837;57.280;27.070;2022-12-29T02:22:27;0.8;;;0.8;;
63690;SDS011;49837;57.280;27.070;2022-12-29T02:24:39;0.8;;;0.8;;
63690;SDS011;49837;57.280;27.070;2022-12-29T02:31:52;0.8;;;0.8;;
63690;SDS011;49837;57.280;27.070;2022-12-29T02:34:10;0.8;;;0.8;;
63690;SDS011;49837;57.280;27.070;2022-12-29T02:35:05;0.8;;;0.8;;
63690;SDS011;49837;57.280;27.070;2022-12-29T02:36:01;0.9;;;0.9;;
63690;SDS011;49837;57.280;27.070;2022-12-29T02:40:17;0.8;;;0.8;;
63690;SDS011;49837;57.280;27.070;2022-12-29T02:41:30;0.9;;;0.9;;
63690;SDS011;49837;57.280;27.070;2022-12-29T02:42:23;0.7;;;0.7;;
63690;SDS011;49837;57.280;27.070;2022-12-29T02:43:23;0.9;;;0.9;;
63690;SDS011;49837;57.280;27.070;2022-12-29T02:44:30;0.8;;;0.8;;
63690;SDS011;49837;57.280;27.070;2022-12-29T02:45:27;0.8;;;0.8;;
63690;SDS011;49837;57.280;27.070;2022-12-29T02:46:43;0.9;;;0.9;;
63690;SDS011;49837;57.280;27.070;2022-12-29T02:47:41;0.8;;;0.8;;
63690;SDS011;49837;57.280;27.070;2022-12-29T02:49:38;0.8;;;0.8;;
63690;SDS011;49837;57.280;27.070;2022-12-29T02:50:48;0.8;;;0.8;;
63690;SDS011;49837;57.280;27.070;2022-12-29T02:52:02;0.8;;;0.8;;
63690;SDS011;49837;57.280;27.070;2022-12-29T02:52:59;0.7;;;0.7;;
63690;SDS011;49837;57.280;27.070;2022-12-29T02:53:47;0.8;;;0.8;;
63690;SDS011;49837;57.280;27.070;2022-12-29T02:54:48;0.8;;;0.8;;
63690;SDS011;49837;57.280;27.070;2022-12-29T02:55:48;0.8;;;0.8;;
63690;SDS011;49837;57.280;27.070;2022-12-29T02:56:47;0.7;;;0.7;;
63690;SDS011;49837;57.280;27.070;2022-12-29T02:57:48;0.8;;;0.8;;
63690;SDS011;49837;57.280;27.070;2022-12-29T02:58:48;0.8;;;0.8;;
63690;SDS011;49837;57.280;27.070;2022-12-29T02:59:51;0.7;;;0.7;;
63690;SDS011;49837;57.280;27.070;2022-12-29T03:01:16;0.8;;;0.8;;
63690;SDS011;49837;57.280;27.070;2022-12-29T03:03:07;0.8;;;0.8;;
63690;SDS011;49837;57.280;27.070;2022-12-29T03:04:12;0.9;;;0.9;;
63690;SDS011;49837;57.280;27.070;2022-12-29T03:06:17;0.8;;;0.8;;
63690;SDS011;49837;57.280;27.070;2022-12-29T03:08:21;0.7;;;0.7;;
63690;SDS011;49837;57.280;27.070;2022-12-29T03:09:41;0.8;;;0.8;;
63690;SDS011;49837;57.280;27.070;2022-12-29T03:11:25;0.9;;;0.9;;
63690;SDS011;49837;57.280;27.070;2022-12-29T03:12:31;0.8;;;0.8;;
63690;SDS011;49837;57.280;27.070;2022-12-29T03:13:47;0.8;;;0.8;;
63690;SDS011;49837;57.280;27.070;2022-12-29T03:15:34;0.9;;;0.9;;
63690;SDS011;49837;57.280;27.070;2022-12-29T03:16:39;0.8;;;0.8;;
63690;SDS011;49837;57.280;27.070;2022-12-29T03:17:48;0.8;;;0.8;;
63690;SDS011;49837;57.280;27.070;2022-12-29T03:18:51;0.8;;;0.8;;
63690;SDS011;49837;57.280;27.070;2022-12-29T03:19:46;0.7;;;0.7;;
63690;SDS011;49837;57.280;27.070;2022-12-29T03:20:49;0.8;;;0.8;;
63690;SDS011;49837;57.280;27.070;2022-12-29T03:21:54;0.9;;;0.9;;
63690;SDS011;49837;57.280;27.070;2022-12-29T03:22:47;0.8;;;0.8;;
63690;SDS011;49837;57.280;27.070;2022-12-29T03:23:48;0.8;;;0.8;;
63690;SDS011;49837;57.280;27.070;2022-12-29T03:24:50;0.9;;;0.9;;
63690;SDS011;49837;57.280;27.070;2022-12-29T03:25:51;0.8;;;0.8;;
63690;SDS011;49837;57.280;27.070;2022-12-29T03:26:53;0.9;;;0.9;;
63690;SDS011;49837;57.280;27.070;2022-12-29T03:27:55;0.8;;;0.8;;
63690;SDS011;49837;57.280;27.070;2022-12-29T03:28:56;0.7;;;0.7;;
63690;SDS011;49837;57.280;27.070;2022-12-29T03:30:00;0.7;;;0.7;;
63690;SDS011;49837;57.280;27.070;2022-12-29T03:30:59;0.7;;;0.7;;
63690;SDS011;49837;57.280;27.070;2022-12-29T03:31:59;0.8;;;0.8;;
63690;SDS011;49837;57.280;27.070;2022-12-29T03:33:01;0.9;;;0.9;;
63690;SDS011;49837;57.280;27.070;2022-12-29T03:34:01;0.9;;;0.9;;
63690;SDS011;49837;57.280;27.070;2022-12-29T03:35:02;0.9;;;0.9;;
63690;SDS011;49837;57.280;27.070;2022-12-29T03:36:04;0.9;;;0.9;;
63690;SDS011;49837;57.280;27.070;2022-12-29T03:37:09;0.8;;;0.8;;
63690;SDS011;49837;57.280;27.070;2022-12-29T03:38:14;0.9;;;0.9;;
63690;SDS011;49837;57.280;27.070;2022-12-29T03:39:12;0.8;;;0.8;;
63690;SDS011;49837;57.280;27.070;2022-12-29T03:40:12;0.9;;;0.9;;
63690;SDS011;49837;57.280;27.070;2022-12-29T03:41:14;0.8;;;0.8;;
63690;SDS011;49837;57.280;27.070;2022-12-29T03:42:17;0.8;;;0.8;;
63690;SDS011;49837;57.280;27.070;2022-12-29T03:43:18;0.8;;;0.8;;
63690;SDS011;49837;57.280;27.070;2022-12-29T03:44:18;0.9;;;0.9;;
63690;SDS011;49837;57.280;27.070;2022-12-29T03:45:18;0.9;;;0.9;;
63690;SDS011;49837;57.280;27.070;2022-12-29T03:46:19;0.8;;;0.8;;
63690;SDS011;49837;57.280;27.070;2022-12-29T03:47:19;0.8;;;0.8;;
63690;SDS011;49837;57.280;27.070;2022-12-29T03:48:19;0.8;;;0.8;;
63690;SDS011;49837;57.280;27.070;2022-12-29T03:49:20;0.7;;;0.7;;
63690;SDS011;49837;57.280;27.070;2022-12-29T03:50:20;1.0;;;1.0;;
63690;SDS011;49837;57.280;27.070;2022-12-29T03:51:20;1.3;;;1.2;;
63690;SDS011;49837;57.280;27.070;2022-12-29T03:52:21;1.3;;;1.2;;
63690;SDS011;49837;57.280;27.070;2022-12-29T03:53:21;1.1;;;1.1;;
63690;SDS011;49837;57.280;27.070;2022-12-29T03:54:21;1.0;;;1.0;;
63690;SDS011;49837;57.280;27.070;2022-12-29T03:55:22;0.7;;;0.7;;
63690;SDS011;49837;57.280;27.070;2022-12-29T03:56:22;0.7;;;0.7;;
63690;SDS011;49837;57.280;27.070;2022-12-29T03:57:22;0.8;;;0.8;;
63690;SDS011;49837;57.280;27.070;2022-12-29T03:58:23;0.8;;;0.8;;
63690;SDS011;49837;57.280;27.070;2022-12-29T03:59:23;0.8;;;0.8;;
63690;SDS011;49837;57.280;27.070;2022-12-29T04:00:23;0.8;;;0.8;;
63690;SDS011;49837;57.280;27.070;2022-12-29T04:01:24;0.9;;;0.9;;
63690;SDS011;49837;57.280;27.070;2022-12-29T04:02:24;0.7;;;0.7;;
63690;SDS011;49837;57.280;27.070;2022-12-29T04:03:25;0.7;;;0.7;;
63690;SDS011;49837;57.280;27.070;2022-12-29T04:04:25;0.7;;;0.7;;
63690;SDS011;49837;57.280;27.070;2022-12-29T04:05:25;0.8;;;0.8;;
63690;SDS011;49837;57.280;27.070;2022-12-29T04:06:26;0.9;;;0.9;;
63690;SDS011;49837;57.280;27.070;2022-12-29T04:07:26;0.8;;;0.8;;
63690;SDS011;49837;57.280;27.070;2022-12-29T04:08:26;0.8;;;0.8;;
63690;SDS011;49837;57.280;27.070;2022-12-29T04:09:27;0.8;;;0.8;;
63690;SDS011;49837;57.280;27.070;2022-12-29T04:10:27;0.7;;;0.7;;
63690;SDS011;49837;57.280;27.070;2022-12-29T04:11:27;0.8;;;0.8;;
63690;SDS011;49837;57.280;27.070;2022-12-29T04:12:29;0.8;;;0.8;;
63690;SDS011;49837;57.280;27.070;2022-12-29T04:13:29;0.8;;;0.8;;
63690;SDS011;49837;57.280;27.070;2022-12-29T04:14:29;0.8;;;0.8;;
63690;SDS011;49837;57.280;27.070;2022-12-29T04:15:30;0.8;;;0.8;;
63690;SDS011;49837;57.280;27.070;2022-12-29T04:16:30;0.8;;;0.8;;
63690;SDS011;49837;57.280;27.070;2022-12-29T04:17:30;0.7;;;0.7;;
63690;SDS011;49837;57.280;27.070;2022-12-29T04:18:31;0.8;;;0.8;;
63690;SDS011;49837;57.280;27.070;2022-12-29T04:19:31;0.8;;;0.8;;
63690;SDS011;49837;57.280;27.070;2022-12-29T04:20:32;0.7;;;0.7;;
63690;SDS011;49837;57.280;27.070;2022-12-29T04:21:32;0.9;;;0.9;;
63690;SDS011;49837;57.280;27.070;2022-12-29T04:22:32;0.8;;;0.8;;
63690;SDS011;49837;57.280;27.070;2022-12-29T04:23:34;0.9;;;0.9;;
63690;SDS011;49837;57.280;27.070;2022-12-29T04:24:33;0.9;;;0.9;;
63690;SDS011;49837;57.280;27.070;2022-12-29T04:25:34;0.9;;;0.9;;
63690;SDS011;49837;57.280;27.070;2022-12-29T04:26:34;0.8;;;0.8;;
63690;SDS011;49837;57.280;27.070;2022-12-29T04:27:34;0.8;;;0.8;;
63690;SDS011;49837;57.280;27.070;2022-12-29T04:28:35;0.8;;;0.8;;
63690;SDS011;49837;57.280;27.070;2022-12-29T04:29:35;0.8;;;0.8;;
63690;SDS011;49837;57.280;27.070;2022-12-29T04:30:35;0.8;;;0.8;;
63690;SDS011;49837;57.280;27.070;2022-12-29T04:31:36;0.8;;;0.8;;
63690;SDS011;49837;57.280;27.070;2022-12-29T04:32:36;0.8;;;0.8;;
63690;SDS011;49837;57.280;27.070;2022-12-29T04:33:36;0.8;;;0.8;;
63690;SDS011;49837;57.280;27.070;2022-12-29T04:34:37;0.8;;;0.8;;
63690;SDS011;49837;57.280;27.070;2022-12-29T04:35:37;0.7;;;0.7;;
63690;SDS011;49837;57.280;27.070;2022-12-29T04:36:38;0.8;;;0.8;;
63690;SDS011;49837;57.280;27.070;2022-12-29T04:37:38;1.5;;;1.4;;
63690;SDS011;49837;57.280;27.070;2022-12-29T04:38:38;1.3;;;1.2;;
63690;SDS011;49837;57.280;27.070;2022-12-29T04:39:39;1.0;;;1.0;;
63690;SDS011;49837;57.280;27.070;2022-12-29T04:40:39;1.6;;;1.5;;
63690;SDS011;49837;57.280;27.070;2022-12-29T04:41:39;1.3;;;1.2;;
63690;SDS011;49837;57.280;27.070;2022-12-29T04:42:40;1.0;;;1.0;;
63690;SDS011;49837;57.280;27.070;2022-12-29T04:43:40;1.5;;;1.4;;
63690;SDS011;49837;57.280;27.070;2022-12-29T04:44:40;1.4;;;1.3;;
63690;SDS011;49837;57.280;27.070;2022-12-29T04:45:46;1.4;;;1.3;;
63690;SDS011;49837;57.280;27.070;2022-12-29T04:46:43;1.0;;;1.0;;
63690;SDS011;49837;57.280;27.070;2022-12-29T04:47:44;1.2;;;1.1;;
63690;SDS011;49837;57.280;27.070;2022-12-29T04:48:44;2.1;;;1.9;;
63690;SDS011;49837;57.280;27.070;2022-12-29T04:49:44;1.1;;;1.1;;
63690;SDS011;49837;57.280;27.070;2022-12-29T04:50:47;1.0;;;1.0;;
63690;SDS011;49837;57.280;27.070;2022-12-29T04:51:45;1.3;;;1.2;;
63690;SDS011;49837;57.280;27.070;2022-12-29T04:52:46;2.3;;;2.1;;
63690;SDS011;49837;57.280;27.070;2022-12-29T04:53:46;1.3;;;1.2;;
63690;SDS011;49837;57.280;27.070;2022-12-29T04:54:46;0.9;;;0.9;;
63690;SDS011;49837;57.280;27.070;2022-12-29T04:55:50;1.1;;;1.1;;
63690;SDS011;49837;57.280;27.070;2022-12-29T04:56:48;1.1;;;1.0;;
63690;SDS011;49837;57.280;27.070;2022-12-29T04:57:49;1.1;;;1.1;;
63690;SDS011;49837;57.280;27.070;2022-12-29T04:58:49;1.1;;;1.1;;
63690;SDS011;49837;57.280;27.070;2022-12-29T04:59:49;0.9;;;0.9;;
63690;SDS011;49837;57.280;27.070;2022-12-29T05:00:50;0.9;;;0.9;;
63690;SDS011;49837;57.280;27.070;2022-12-29T05:01:50;1.0;;;1.0;;
63690;SDS011;49837;57.280;27.070;2022-12-29T05:02:50;0.9;;;0.9;;
63690;SDS011;49837;57.280;27.070;2022-12-29T05:03:51;1.3;;;1.2;;
63690;SDS011;49837;57.280;27.070;2022-12-29T05:04:51;1.0;;;1.0;;
63690;SDS011;49837;57.280;27.070;2022-12-29T05:05:55;1.0;;;1.0;;
63690;SDS011;49837;57.280;27.070;2022-12-29T05:06:52;1.2;;;1.2;;
63690;SDS011;49837;57.280;27.070;2022-12-29T05:07:53;1.1;;;1.1;;
63690;SDS011;49837;57.280;27.070;2022-12-29T05:08:53;1.0;;;1.0;;
63690;SDS011;49837;57.280;27.070;2022-12-29T05:09:54;1.2;;;1.1;;
63690;SDS011;49837;57.280;27.070;2022-12-29T05:10:54;1.1;;;1.0;;
63690;SDS011;49837;57.280;27.070;2022-12-29T05:11:54;1.0;;;1.0;;
63690;SDS011;49837;57.280;27.070;2022-12-29T05:12:55;1.0;;;1.0;;
63690;SDS011;49837;57.280;27.070;2022-12-29T05:13:55;1.0;;;1.0;;
63690;SDS011;49837;57.280;27.070;2022-12-29T05:14:55;1.9;;;1.0;;
63690;SDS011;49837;57.280;27.070;2022-12-29T05:15:56;1.1;;;1.1;;
63690;SDS011;49837;57.280;27.070;2022-12-29T05:16:56;0.9;;;0.9;;
63690;SDS011;49837;57.280;27.070;2022-12-29T05:17:56;0.9;;;0.9;;
63690;SDS011;49837;57.280;27.070;2022-12-29T05:18:57;1.0;;;0.9;;
63690;SDS011;49837;57.280;27.070;2022-12-29T05:19:57;1.5;;;1.4;;
63690;SDS011;49837;57.280;27.070;2022-12-29T05:20:57;0.9;;;0.9;;
63690;SDS011;49837;57.280;27.070;2022-12-29T05:21:58;1.1;;;1.1;;
63690;SDS011;49837;57.280;27.070;2022-12-29T05:22:58;1.0;;;1.0;;
63690;SDS011;49837;57.280;27.070;2022-12-29T05:23:58;1.1;;;1.1;;
63690;SDS011;49837;57.280;27.070;2022-12-29T05:24:59;1.4;;;1.3;;
63690;SDS011;49837;57.280;27.070;2022-12-29T05:25:59;1.6;;;1.5;;
63690;SDS011;49837;57.280;27.070;2022-12-29T05:26:59;2.0;;;1.8;;
63690;SDS011;49837;57.280;27.070;2022-12-29T05:28:00;1.5;;;1.4;;
63690;SDS011;49837;57.280;27.070;2022-12-29T05:29:00;1.3;;;1.2;;
63690;SDS011;49837;57.280;27.070;2022-12-29T05:30:00;1.3;;;1.2;;
63690;SDS011;49837;57.280;27.070;2022-12-29T05:31:01;1.2;;;1.1;;
63690;SDS011;49837;57.280;27.070;2022-12-29T05:32:01;1.0;;;1.0;;
63690;SDS011;49837;57.280;27.070;2022-12-29T05:33:02;0.9;;;0.9;;
63690;SDS011;49837;57.280;27.070;2022-12-29T05:34:04;1.2;;;1.1;;
63690;SDS011;49837;57.280;27.070;2022-12-29T05:35:02;1.1;;;1.1;;
63690;SDS011;49837;57.280;27.070;2022-12-29T05:36:06;1.0;;;1.0;;
63690;SDS011;49837;57.280;27.070;2022-12-29T05:37:04;1.1;;;1.1;;
63690;SDS011;49837;57.280;27.070;2022-12-29T05:38:04;1.0;;;1.0;;
63690;SDS011;49837;57.280;27.070;2022-12-29T05:39:05;1.0;;;1.0;;
63690;SDS011;49837;57.280;27.070;2022-12-29T05:40:06;1.6;;;1.0;;
63690;SDS011;49837;57.280;27.070;2022-12-29T05:41:06;1.0;;;1.0;;
63690;SDS011;49837;57.280;27.070;2022-12-29T05:42:06;1.0;;;1.0;;
63690;SDS011;49837;57.280;27.070;2022-12-29T05:43:06;1.4;;;1.2;;
63690;SDS011;49837;57.280;27.070;2022-12-29T05:44:07;1.2;;;1.1;;
63690;SDS011;49837;57.280;27.070;2022-12-29T05:45:07;1.1;;;1.1;;
63690;SDS011;49837;57.280;27.070;2022-12-29T05:46:07;1.1;;;1.1;;
63690;SDS011;49837;57.280;27.070;2022-12-29T05:47:08;1.2;;;1.1;;
63690;SDS011;49837;57.280;27.070;2022-12-29T05:48:08;1.1;;;1.1;;
63690;SDS011;49837;57.280;27.070;2022-12-29T05:49:08;1.0;;;1.0;;
63690;SDS011;49837;57.280;27.070;2022-12-29T05:50:09;2.0;;;1.2;;
63690;SDS011;49837;57.280;27.070;2022-12-29T05:51:09;1.1;;;1.1;;
63690;SDS011;49837;57.280;27.070;2022-12-29T05:52:09;1.5;;;1.4;;
63690;SDS011;49837;57.280;27.070;2022-12-29T05:53:10;1.8;;;1.7;;
63690;SDS011;49837;57.280;27.070;2022-12-29T05:54:10;2.4;;;1.8;;
63690;SDS011;49837;57.280;27.070;2022-12-29T05:55:11;1.8;;;1.5;;
63690;SDS011;49837;57.280;27.070;2022-12-29T05:56:11;1.2;;;1.1;;
63690;SDS011;49837;57.280;27.070;2022-12-29T05:57:11;1.1;;;1.1;;
63690;SDS011;49837;57.280;27.070;2022-12-29T05:58:11;1.2;;;1.2;;
63690;SDS011;49837;57.280;27.070;2022-12-29T05:59:12;1.3;;;1.1;;
63690;SDS011;49837;57.280;27.070;2022-12-29T06:00:13;1.1;;;1.1;;
63690;SDS011;49837;57.280;27.070;2022-12-29T06:01:12;1.7;;;1.2;;
63690;SDS011;49837;57.280;27.070;2022-12-29T06:02:13;3.2;;;1.2;;
63690;SDS011;49837;57.280;27.070;2022-12-29T06:03:13;1.3;;;1.2;;
63690;SDS011;49837;57.280;27.070;2022-12-29T06:04:13;1.6;;;1.1;;
63690;SDS011;49837;57.280;27.070;2022-12-29T06:05:14;1.3;;;1.2;;
63690;SDS011;49837;57.280;27.070;2022-12-29T06:06:14;1.3;;;1.2;;
63690;SDS011;49837;57.280;27.070;2022-12-29T06:07:14;3.0;;;1.1;;
63690;SDS011;49837;57.280;27.070;2022-12-29T06:08:15;1.2;;;1.1;;
63690;SDS011;49837;57.280;27.070;2022-12-29T06:09:15;2.4;;;1.2;;
63690;SDS011;49837;57.280;27.070;2022-12-29T06:10:16;1.9;;;1.1;;
63690;SDS011;49837;57.280;27.070;2022-12-29T06:11:16;1.2;;;1.1;;
63690;SDS011;49837;57.280;27.070;2022-12-29T06:12:16;1.2;;;1.1;;
63690;SDS011;49837;57.280;27.070;2022-12-29T06:13:17;1.3;;;1.2;;
63690;SDS011;49837;57.280;27.070;2022-12-29T06:14:17;1.1;;;1.1;;
63690;SDS011;49837;57.280;27.070;2022-12-29T06:15:17;1.6;;;1.1;;
63690;SDS011;49837;57.280;27.070;2022-12-29T06:16:18;1.1;;;1.1;;
63690;SDS011;49837;57.280;27.070;2022-12-29T06:17:18;1.8;;;1.4;;
63690;SDS011;49837;57.280;27.070;2022-12-29T06:18:18;1.4;;;1.3;;
63690;SDS011;49837;57.280;27.070;2022-12-29T06:19:19;1.5;;;1.4;;
63690;SDS011;49837;57.280;27.070;2022-12-29T06:20:19;1.1;;;1.1;;
63690;SDS011;49837;57.280;27.070;2022-12-29T06:21:19;1.4;;;1.3;;
63690;SDS011;49837;57.280;27.070;2022-12-29T06:22:20;1.2;;;1.2;;
63690;SDS011;49837;57.280;27.070;2022-12-29T06:23:20;1.1;;;1.1;;
63690;SDS011;49837;57.280;27.070;2022-12-29T06:24:21;1.4;;;1.3;;
63690;SDS011;49837;57.280;27.070;2022-12-29T06:25:21;1.9;;;1.3;;
63690;SDS011;49837;57.280;27.070;2022-12-29T06:26:21;1.3;;;1.2;;
63690;SDS011;49837;57.280;27.070;2022-12-29T06:27:21;1.5;;;1.4;;
63690;SDS011;49837;57.280;27.070;2022-12-29T06:28:22;1.3;;;1.2;;
63690;SDS011;49837;57.280;27.070;2022-12-29T06:29:22;1.6;;;1.5;;
63690;SDS011;49837;57.280;27.070;2022-12-29T06:30:22;1.7;;;1.6;;
63690;SDS011;49837;57.280;27.070;2022-12-29T06:31:23;1.8;;;1.7;;
63690;SDS011;49837;57.280;27.070;2022-12-29T06:32:23;1.5;;;1.4;;
63690;SDS011;49837;57.280;27.070;2022-12-29T06:33:24;2.0;;;1.8;;
63690;SDS011;49837;57.280;27.070;2022-12-29T06:34:24;1.8;;;1.4;;
63690;SDS011;49837;57.280;27.070;2022-12-29T06:35:24;1.5;;;1.4;;
63690;SDS011;49837;57.280;27.070;2022-12-29T06:36:25;1.5;;;1.2;;